Time;durP1;ratioP1;P1;durP2;ratioP2;P2;SDS_P1;SDS_P2;PMS_P1;PMS_P2;Temp;Humidity;BMP_temperature;BMP_pressure;BME280_temperature;BME280_humidity;BME280_pressure;Samples;Min_cycle;Max_cycle;Signal;HPM_P1;HPM_P2
2023/12/08 00:00:34;;;;;;;0.90;0.85;;;1.40;99.90;;;;;;6185974;23;20095;-72
2023/12/08 00:03:00;;;;;;;1.45;1.35;;;1.40;99.90;;;;;;6187369;23;20055;-71
2023/12/08 00:05:25;;;;;;;0.90;0.80;;;1.40;99.90;;;;;;6186964;23;20016;-72
2023/12/08 00:07:51;;;;;;;0.47;0.47;;;1.40;99.90;;;;;;6159701;23;20028;-72
2023/12/08 00:10:16;;;;;;;1.70;0.52;;;1.40;99.90;;;;;;6186073;23;20015;-72
2023/12/08 00:12:42;;;;;;;0.30;0.30;;;1.40;99.90;;;;;;6212960;23;20066;-72
2023/12/08 00:15:09;;;;;;;0.85;0.85;;;1.40;99.90;;;;;;6184097;23;20063;-72
2023/12/08 00:17:34;;;;;;;0.43;0.40;;;1.40;99.90;;;;;;6186263;23;20189;-72
2023/12/08 00:20:00;;;;;;;2.30;1.17;;;1.40;99.90;;;;;;6186936;23;20066;-71
2023/12/08 00:22:27;;;;;;;0.45;0.45;;;1.40;99.90;;;;;;6184721;23;20012;-72
2023/12/08 00:24:53;;;;;;;1.42;1.15;;;1.40;99.90;;;;;;6211245;23;20228;-71
2023/12/08 00:27:19;;;;;;;1.35;0.90;;;1.40;99.90;;;;;;6187355;23;20062;-72
2023/12/08 00:29:45;;;;;;;0.28;0.28;;;1.40;99.90;;;;;;6216001;23;20088;-72
2023/12/08 00:32:10;;;;;;;2.25;0.43;;;1.40;99.90;;;;;;6188180;23;20404;-72
2023/12/08 00:34:36;;;;;;;0.90;0.90;;;1.40;99.90;;;;;;6185253;23;20083;-72
2023/12/08 00:37:01;;;;;;;0.60;0.60;;;1.40;99.90;;;;;;6186561;23;20440;-72
2023/12/08 00:39:27;;;;;;;0.40;0.40;;;1.40;99.90;;;;;;6212934;23;20017;-72
2023/12/08 00:41:52;;;;;;;0.50;0.50;;;1.40;99.90;;;;;;6187343;23;20009;-72
2023/12/08 00:44:18;;;;;;;0.73;0.73;;;1.40;99.90;;;;;;6186733;23;20084;-72
2023/12/08 00:46:43;;;;;;;0.82;0.82;;;1.40;99.90;;;;;;6187754;23;20087;-72
2023/12/08 00:49:09;;;;;;;1.25;1.15;;;1.40;99.90;;;;;;6215418;23;20015;-72
2023/12/08 00:51:34;;;;;;;0.30;0.25;;;1.40;99.90;;;;;;6188789;23;20095;-73
2023/12/08 00:54:00;;;;;;;1.27;0.98;;;1.40;99.90;;;;;;6187764;23;20008;-75
2023/12/08 00:56:26;;;;;;;0.35;0.35;;;1.40;99.90;;;;;;6212343;23;20025;-72
2023/12/08 00:58:51;;;;;;;1.65;1.08;;;1.40;99.90;;;;;;6181522;23;20479;-72
2023/12/08 01:01:19;;;;;;;0.20;0.20;;;1.50;99.90;;;;;;6185180;23;20027;-72
2023/12/08 01:03:45;;;;;;;1.40;1.30;;;1.40;99.90;;;;;;6212380;23;20087;-72
2023/12/08 01:06:11;;;;;;;0.95;0.77;;;1.50;99.90;;;;;;6211007;23;20067;-72
2023/12/08 01:08:36;;;;;;;0.35;0.35;;;1.50;99.90;;;;;;6184027;23;20432;-73
2023/12/08 01:11:02;;;;;;;0.40;0.40;;;1.50;99.90;;;;;;6212980;23;20009;-73
2023/12/08 01:13:27;;;;;;;0.13;0.13;;;1.50;99.90;;;;;;6161316;23;20332;-72
2023/12/08 01:15:53;;;;;;;0.47;0.28;;;1.50;99.90;;;;;;6186013;23;20443;-72
2023/12/08 01:18:18;;;;;;;0.20;0.20;;;1.50;99.90;;;;;;6186465;23;20087;-72
2023/12/08 01:20:44;;;;;;;1.48;1.38;;;1.50;99.90;;;;;;6186365;23;20043;-72
2023/12/08 01:23:09;;;;;;;0.50;0.50;;;1.40;99.90;;;;;;6210102;23;20016;-73
2023/12/08 01:25:35;;;;;;;5.72;1.05;;;1.40;99.90;;;;;;6185774;23;20016;-73
2023/12/08 01:28:00;;;;;;;4.60;2.38;;;1.50;99.90;;;;;;6186176;23;20104;-72
2023/12/08 01:30:26;;;;;;;1.10;1.08;;;1.50;99.90;;;;;;6185745;23;20017;-72
2023/12/08 01:32:51;;;;;;;0.32;0.32;;;1.50;99.90;;;;;;6212993;23;20020;-72
2023/12/08 01:35:17;;;;;;;3.92;0.73;;;1.50;99.90;;;;;;6185612;23;20008;-72
2023/12/08 01:37:43;;;;;;;1.48;0.55;;;1.50;99.90;;;;;;6182422;23;20035;-72
2023/12/08 01:40:08;;;;;;;0.50;0.50;;;1.50;99.90;;;;;;6185505;23;20043;-72
2023/12/08 01:42:34;;;;;;;0.98;0.55;;;1.50;99.90;;;;;;6184793;23;20016;-72
2023/12/08 01:45:00;;;;;;;0.65;0.60;;;1.50;99.90;;;;;;6211707;23;20044;-72
2023/12/08 01:47:25;;;;;;;2.15;0.22;;;1.50;99.90;;;;;;6212323;23;20017;-72
2023/12/08 01:49:51;;;;;;;0.57;0.50;;;1.50;99.90;;;;;;6185208;23;20009;-72
2023/12/08 01:52:26;;;;;;;1.20;0.85;;;1.50;99.90;;;;;;6185924;23;20012;-72
2023/12/08 01:54:56;;;;;;;1.02;0.52;;;1.50;99.90;;;;;;6184997;23;20097;-72
2023/12/08 01:57:22;;;;;;;0.75;0.75;;;1.50;99.90;;;;;;6212460;23;20020;-72
2023/12/08 01:59:49;;;;;;;1.73;0.73;;;1.50;99.90;;;;;;6211030;23;20111;-73
2023/12/08 02:02:15;;;;;;;1.10;1.10;;;1.50;99.90;;;;;;6184453;23;20020;-73
2023/12/08 02:04:47;;;;;;;0.77;0.77;;;1.50;99.90;;;;;;6185797;23;20095;-73
2023/12/08 02:07:14;;;;;;;0.10;0.10;;;1.50;99.90;;;;;;6183390;23;20012;-72
2023/12/08 02:09:40;;;;;;;2.00;1.08;;;1.50;99.90;;;;;;6185044;23;20013;-73
2023/12/08 02:12:05;;;;;;;0.38;0.38;;;1.50;99.90;;;;;;6185717;23;20079;-72
2023/12/08 02:14:31;;;;;;;0.52;0.52;;;1.50;99.90;;;;;;6183728;23;20013;-72
2023/12/08 02:17:11;;;;;;;0.10;0.10;;;1.50;99.90;;;;;;6186035;23;20020;-72
2023/12/08 02:19:37;;;;;;;0.75;0.28;;;1.50;99.90;;;;;;6213122;23;20543;-72
2023/12/08 02:22:04;;;;;;;1.45;0.90;;;1.50;99.90;;;;;;6212598;23;20013;-73
2023/12/08 02:24:30;;;;;;;2.13;0.65;;;1.50;99.90;;;;;;6152188;23;20019;-72
2023/12/08 02:26:55;;;;;;;0.75;0.75;;;1.50;99.90;;;;;;6183288;23;20332;-72
2023/12/08 02:29:21;;;;;;;0.28;0.28;;;1.50;99.90;;;;;;6183155;23;20067;-72
2023/12/08 02:32:13;;;;;;;0.77;0.63;;;1.50;99.90;;;;;;6185083;23;20009;-73
2023/12/08 02:34:41;;;;;;;0.13;0.13;;;1.50;99.90;;;;;;6184161;23;20047;-73
2023/12/08 02:37:09;;;;;;;0.30;0.30;;;1.50;99.90;;;;;;6186487;23;20015;-72
2023/12/08 02:39:36;;;;;;;0.20;0.20;;;1.60;99.90;;;;;;6212326;23;20408;-73
2023/12/08 02:42:02;;;;;;;0.90;0.90;;;1.60;99.90;;;;;;6187153;23;20017;-73
2023/12/08 02:44:28;;;;;;;2.05;0.95;;;1.60;99.90;;;;;;6159075;23;20020;-73
2023/12/08 02:46:53;;;;;;;0.20;0.20;;;1.60;99.90;;;;;;6213992;23;20016;-73
2023/12/08 02:49:19;;;;;;;0.90;0.57;;;1.60;99.90;;;;;;6212510;23;20028;-73
2023/12/08 02:51:44;;;;;;;0.10;0.10;;;1.60;99.90;;;;;;6186934;23;20005;-73
2023/12/08 02:54:10;;;;;;;2.83;1.17;;;1.60;99.90;;;;;;6182115;23;20017;-73
2023/12/08 02:56:36;;;;;;;0.47;0.47;;;1.60;99.90;;;;;;6184904;23;20013;-73
2023/12/08 02:59:01;;;;;;;1.02;0.60;;;1.50;99.90;;;;;;6185665;23;20071;-73
2023/12/08 03:01:27;;;;;;;6.07;1.70;;;1.50;99.90;;;;;;6160403;23;20048;-73
2023/12/08 03:03:52;;;;;;;0.40;0.40;;;1.50;99.90;;;;;;6186070;23;20031;-72
2023/12/08 03:06:18;;;;;;;0.20;0.20;;;1.50;99.90;;;;;;6160158;23;20017;-71
2023/12/08 03:08:43;;;;;;;0.85;0.63;;;1.40;99.90;;;;;;6211297;23;20051;-71
2023/12/08 03:11:09;;;;;;;1.48;1.38;;;1.40;99.90;;;;;;6185566;23;20012;-71
2023/12/08 03:13:34;;;;;;;0.73;0.52;;;1.30;99.90;;;;;;6210593;23;20009;-70
2023/12/08 03:16:00;;;;;;;2.17;1.40;;;1.30;99.90;;;;;;6210882;23;20063;-70
2023/12/08 03:18:25;;;;;;;0.45;0.25;;;1.30;99.90;;;;;;6185132;23;20016;-70
2023/12/08 03:20:53;;;;;;;0.30;0.30;;;1.30;99.90;;;;;;6213428;23;20023;-70
2023/12/08 03:23:18;;;;;;;1.38;1.27;;;1.30;99.90;;;;;;6184287;23;20067;-70
2023/12/08 03:25:44;;;;;;;0.60;0.60;;;1.30;99.90;;;;;;6185435;23;20016;-70
2023/12/08 03:28:09;;;;;;;0.85;0.85;;;1.20;99.90;;;;;;6185199;23;20019;-70
2023/12/08 03:30:35;;;;;;;1.38;1.30;;;1.20;99.90;;;;;;6186157;23;20016;-70
2023/12/08 03:33:00;;;;;;;0.88;0.88;;;1.20;99.90;;;;;;6182327;23;20603;-71
2023/12/08 03:35:27;;;;;;;1.85;1.23;;;1.20;99.90;;;;;;6158093;23;20471;-72
2023/12/08 03:37:52;;;;;;;0.40;0.40;;;1.10;99.90;;;;;;6184148;23;20016;-71
2023/12/08 03:40:18;;;;;;;0.95;0.75;;;1.10;99.90;;;;;;6184313;23;20100;-71
2023/12/08 03:42:43;;;;;;;3.00;1.02;;;1.10;99.90;;;;;;6210103;23;20119;-71
2023/12/08 03:45:09;;;;;;;0.20;0.20;;;1.10;99.90;;;;;;6184483;23;20012;-71
2023/12/08 03:47:34;;;;;;;1.30;1.20;;;1.10;99.90;;;;;;6186234;23;20017;-72
2023/12/08 03:50:00;;;;;;;1.25;0.93;;;1.10;99.90;;;;;;6186423;23;20009;-72
2023/12/08 03:52:26;;;;;;;2.28;0.88;;;1.10;99.90;;;;;;6186756;23;20013;-70
2023/12/08 03:54:51;;;;;;;0.28;0.28;;;1.10;99.90;;;;;;6186054;23;20035;-72
2023/12/08 03:57:17;;;;;;;3.42;0.90;;;1.00;99.90;;;;;;6215764;23;20031;-72
2023/12/08 03:59:42;;;;;;;1.13;1.08;;;1.00;99.90;;;;;;6213805;23;20492;-72
2023/12/08 04:02:09;;;;;;;1.90;1.23;;;1.00;99.90;;;;;;6188557;23;20534;-73
2023/12/08 04:04:34;;;;;;;1.10;0.93;;;1.00;99.90;;;;;;6185944;23;20016;-73
2023/12/08 04:07:00;;;;;;;1.65;0.88;;;1.00;99.90;;;;;;6213987;23;20016;-72
2023/12/08 04:09:25;;;;;;;3.25;1.85;;;1.00;99.90;;;;;;6189018;23;20463;-74
2023/12/08 04:11:51;;;;;;;1.55;1.45;;;1.00;99.90;;;;;;6184622;23;20020;-73
2023/12/08 04:14:17;;;;;;;5.32;1.27;;;1.00;99.90;;;;;;6183556;23;20008;-73
2023/12/08 04:16:43;;;;;;;3.45;1.02;;;1.00;99.90;;;;;;6186667;23;20008;-71
2023/12/08 04:19:12;;;;;;;0.50;0.50;;;1.00;99.90;;;;;;6213963;23;20048;-72
2023/12/08 04:21:38;;;;;;;0.95;0.95;;;1.00;99.90;;;;;;6212719;23;20322;-72
2023/12/08 04:24:04;;;;;;;1.75;1.27;;;1.00;99.90;;;;;;6186310;23;20109;-73
2023/12/08 04:26:29;;;;;;;8.35;1.02;;;1.00;99.90;;;;;;6184825;23;20012;-73
2023/12/08 04:28:55;;;;;;;3.70;1.45;;;1.00;99.90;;;;;;6214155;23;20021;-74
2023/12/08 04:31:21;;;;;;;1.55;0.63;;;1.00;99.90;;;;;;6185548;23;20177;-77
2023/12/08 04:33:47;;;;;;;2.30;1.45;;;1.00;99.90;;;;;;6186420;23;20008;-74
2023/12/08 04:36:13;;;;;;;1.77;1.00;;;1.00;99.90;;;;;;6187105;23;20012;-74
2023/12/08 04:38:40;;;;;;;2.78;0.98;;;1.00;99.90;;;;;;6188538;23;20103;-75
2023/12/08 04:41:06;;;;;;;0.82;0.82;;;1.00;99.90;;;;;;6186753;23;20051;-74
2023/12/08 04:43:31;;;;;;;1.10;0.75;;;1.00;99.90;;;;;;6186840;23;20036;-74
2023/12/08 04:45:57;;;;;;;3.85;1.85;;;1.00;99.90;;;;;;6185810;23;20493;-74
2023/12/08 04:48:22;;;;;;;3.88;2.40;;;1.00;99.90;;;;;;6214127;23;20020;-73
2023/12/08 04:50:51;;;;;;;3.20;0.73;;;1.00;99.90;;;;;;6187963;23;20048;-72
2023/12/08 04:53:17;;;;;;;1.58;1.05;;;1.00;99.90;;;;;;6162203;23;20083;-75
2023/12/08 04:55:43;;;;;;;0.77;0.77;;;1.00;99.90;;;;;;6183168;23;20106;-73
2023/12/08 04:58:08;;;;;;;1.65;1.33;;;0.90;99.90;;;;;;6187363;23;20451;-74
2023/12/08 05:00:34;;;;;;;1.48;1.38;;;1.00;99.90;;;;;;6162026;23;20027;-75
2023/12/08 05:03:00;;;;;;;1.88;1.38;;;1.00;99.90;;;;;;6188096;23;20023;-73
2023/12/08 05:05:26;;;;;;;10.80;3.67;;;1.00;99.90;;;;;;6214848;23;20013;-74
2023/12/08 05:07:52;;;;;;;2.83;1.15;;;1.00;99.90;;;;;;6188701;23;20290;-73
2023/12/08 05:10:18;;;;;;;2.45;1.52;;;1.00;99.90;;;;;;6188893;23;20527;-73
2023/12/08 05:12:44;;;;;;;2.30;1.25;;;1.00;99.90;;;;;;6216202;23;20040;-74
2023/12/08 05:15:09;;;;;;;0.20;0.20;;;1.00;99.90;;;;;;6215752;23;20115;-74
2023/12/08 05:17:35;;;;;;;3.15;0.50;;;1.00;99.90;;;;;;6216292;23;20012;-74
2023/12/08 05:20:05;;;;;;;2.33;0.57;;;0.90;99.90;;;;;;6164837;23;20094;-75
2023/12/08 05:22:31;;;;;;;2.72;0.98;;;0.90;99.90;;;;;;6190661;23;20462;-74
2023/12/08 05:24:56;;;;;;;0.90;0.70;;;0.90;99.90;;;;;;6190071;23;20013;-74
2023/12/08 05:27:22;;;;;;;0.50;0.50;;;0.90;99.90;;;;;;6165166;23;20491;-74
2023/12/08 05:29:47;;;;;;;0.63;0.63;;;0.90;99.90;;;;;;6217338;23;20015;-74
2023/12/08 05:32:13;;;;;;;0.95;0.57;;;0.90;99.90;;;;;;6190037;23;20013;-73
2023/12/08 05:34:47;;;;;;;5.30;0.95;;;0.90;99.90;;;;;;6189773;23;20019;-73
2023/12/08 05:37:13;;;;;;;1.35;1.33;;;0.90;99.90;;;;;;6187798;23;20009;-72
2023/12/08 05:39:38;;;;;;;0.57;0.47;;;0.90;99.90;;;;;;6189577;23;20444;-72
2023/12/08 05:42:21;;;;;;;1.38;1.27;;;0.90;99.90;;;;;;6189685;23;20019;-73
2023/12/08 05:44:47;;;;;;;;;;;0.90;99.90;;;;;;6189795;23;20015;-73
2023/12/08 05:47:12;;;;;;;0.82;0.82;;;0.90;99.90;;;;;;6190431;23;20359;-73
2023/12/08 05:49:38;;;;;;;0.50;0.50;;;0.90;99.90;;;;;;6217196;23;20005;-73
2023/12/08 05:52:04;;;;;;;0.20;0.20;;;0.90;99.90;;;;;;6165654;23;20054;-73
2023/12/08 05:54:29;;;;;;;1.02;0.65;;;0.90;99.90;;;;;;6217787;23;20020;-74
2023/12/08 05:56:55;;;;;;;0.50;0.50;;;0.90;99.90;;;;;;6193351;23;20036;-73
2023/12/08 05:59:20;;;;;;;0.88;0.57;;;0.90;99.90;;;;;;6192673;23;20087;-73
2023/12/08 06:01:46;;;;;;;0.95;0.95;;;0.90;99.90;;;;;;6221806;23;20016;-74
2023/12/08 06:04:11;;;;;;;3.83;1.23;;;0.90;99.90;;;;;;6193327;23;20039;-74
2023/12/08 06:06:38;;;;;;;0.63;0.55;;;0.90;99.90;;;;;;6218934;23;20436;-73
2023/12/08 06:09:03;;;;;;;2.55;1.80;;;0.90;99.90;;;;;;6190957;23;20024;-74
2023/12/08 06:11:29;;;;;;;0.80;0.63;;;0.90;99.90;;;;;;6190070;23;20448;-74
2023/12/08 06:13:54;;;;;;;1.95;1.05;;;0.90;99.90;;;;;;6190047;23;20107;-73
2023/12/08 06:20:01;;;;;;;0.60;0.60;;;0.90;99.90;;;;;;6216191;23;20490;-73
2023/12/08 06:22:26;;;;;;;0.90;0.88;;;0.90;99.90;;;;;;6164012;23;20013;-74
2023/12/08 06:24:52;;;;;;;0.88;0.88;;;0.90;99.90;;;;;;6186785;23;20017;-73
2023/12/08 06:27:17;;;;;;;2.80;1.00;;;0.90;99.90;;;;;;6186811;23;20340;-74
2023/12/08 06:29:43;;;;;;;3.45;1.40;;;0.90;99.90;;;;;;6186735;23;20440;-73
2023/12/08 06:32:09;;;;;;;5.40;1.30;;;0.90;99.90;;;;;;6162867;23;20467;-73
2023/12/08 06:34:34;;;;;;;2.20;1.52;;;0.90;99.90;;;;;;6213447;23;20043;-73
2023/12/08 06:37:00;;;;;;;3.47;0.98;;;0.90;99.90;;;;;;6186855;23;20067;-73
2023/12/08 06:39:25;;;;;;;1.08;0.68;;;0.90;99.90;;;;;;6212620;23;20425;-73
2023/12/08 06:41:51;;;;;;;1.70;1.45;;;0.90;99.90;;;;;;6212893;23;20226;-74
2023/12/08 06:44:17;;;;;;;0.52;0.52;;;0.90;99.90;;;;;;6161489;23;20013;-74
2023/12/08 06:46:43;;;;;;;0.95;0.95;;;0.90;99.90;;;;;;6213114;23;20063;-75
2023/12/08 06:49:08;;;;;;;1.45;0.93;;;0.90;99.90;;;;;;6186514;23;20023;-73
2023/12/08 06:51:35;;;;;;;5.03;1.02;;;0.90;99.90;;;;;;6212212;23;20008;-73
2023/12/08 06:54:02;;;;;;;0.77;0.77;;;0.90;99.90;;;;;;6182612;23;20015;-73
2023/12/08 06:56:27;;;;;;;0.85;0.82;;;0.90;99.90;;;;;;6181093;23;20503;-73
2023/12/08 06:58:53;;;;;;;0.75;0.75;;;0.90;99.90;;;;;;6184010;23;20018;-73
2023/12/08 07:01:19;;;;;;;0.75;0.75;;;0.90;99.90;;;;;;6183326;23;20023;-74
2023/12/08 07:03:44;;;;;;;0.10;0.10;;;0.90;99.90;;;;;;6186003;23;20055;-74
2023/12/08 07:06:10;;;;;;;1.42;0.75;;;0.90;99.90;;;;;;6211866;23;20102;-74
2023/12/08 07:08:35;;;;;;;2.40;1.52;;;1.00;99.90;;;;;;6161419;23;20017;-74
2023/12/08 07:11:01;;;;;;;1.20;0.50;;;1.00;99.90;;;;;;6188020;23;20013;-74
2023/12/08 07:13:26;;;;;;;0.50;0.50;;;1.00;99.90;;;;;;6188001;23;20087;-74
2023/12/08 07:15:52;;;;;;;1.70;0.70;;;1.00;99.90;;;;;;6189045;23;20013;-74
2023/12/08 07:18:17;;;;;;;0.55;0.50;;;1.00;99.90;;;;;;6215327;23;20372;-75
2023/12/08 07:24:24;;;;;;;0.38;0.38;;;1.00;99.90;;;;;;6215765;23;20336;-73
2023/12/08 07:26:54;;;;;;;0.38;0.35;;;1.00;99.90;;;;;;6164667;23;20016;-75
2023/12/08 07:29:23;;;;;;;0.68;0.68;;;1.00;99.90;;;;;;6190897;23;20095;-71
2023/12/08 07:31:48;;;;;;;1.33;0.95;;;1.00;99.90;;;;;;6188956;23;20012;-70
2023/12/08 07:34:14;;;;;;;1.90;1.20;;;1.00;99.90;;;;;;6214702;23;20027;-78
2023/12/08 07:36:47;;;;;;;0.80;0.50;;;1.00;99.90;;;;;;6209832;23;20440;-76
2023/12/08 07:39:12;;;;;;;0.50;0.50;;;1.00;99.90;;;;;;6189348;23;20022;-76
2023/12/08 07:41:42;;;;;;;2.03;1.17;;;1.00;99.90;;;;;;6187447;23;20091;-76
2023/12/08 07:44:08;;;;;;;1.65;0.93;;;1.00;99.90;;;;;;6188962;23;20031;-72
2023/12/08 07:46:34;;;;;;;1.88;1.00;;;1.00;99.90;;;;;;6165242;23;20091;-72
2023/12/08 07:48:59;;;;;;;0.90;0.85;;;1.00;99.90;;;;;;6217119;23;20514;-73
2023/12/08 07:51:25;;;;;;;2.78;0.40;;;1.00;99.90;;;;;;6164353;23;20013;-70
2023/12/08 07:53:50;;;;;;;0.50;0.45;;;1.10;99.90;;;;;;6190363;23;20060;-73
2023/12/08 07:56:16;;;;;;;0.73;0.73;;;1.10;99.90;;;;;;6193126;23;20048;-73
2023/12/08 07:58:41;;;;;;;3.47;0.80;;;1.10;99.90;;;;;;6168470;23;20071;-73
2023/12/08 08:01:07;;;;;;;0.57;0.57;;;1.10;99.90;;;;;;6167767;23;20013;-72
2023/12/08 08:03:33;;;;;;;3.55;0.80;;;1.10;99.90;;;;;;6192841;23;20017;-73
2023/12/08 08:05:58;;;;;;;1.17;0.85;;;1.10;99.90;;;;;;6191999;23;20408;-73
2023/12/08 08:08:24;;;;;;;0.13;0.13;;;1.10;99.90;;;;;;6192754;23;20017;-73
2023/12/08 08:10:49;;;;;;;1.42;0.43;;;1.10;99.90;;;;;;6192376;23;20336;-72
2023/12/08 08:13:15;;;;;;;1.20;1.15;;;1.10;99.90;;;;;;6192299;23;20020;-73
2023/12/08 08:15:41;;;;;;;0.65;0.65;;;1.10;99.90;;;;;;6192045;23;20016;-72
2023/12/08 08:18:07;;;;;;;3.60;0.43;;;1.20;99.90;;;;;;6191746;23;20096;-72
2023/12/08 08:24:13;;;;;;;1.73;0.98;;;1.20;99.90;;;;;;6218434;23;20135;-72
2023/12/08 08:26:42;;;;;;;0.50;0.50;;;1.20;99.90;;;;;;6191810;23;20059;-72
2023/12/08 08:29:08;;;;;;;0.85;0.85;;;1.20;99.90;;;;;;6192101;23;20020;-72
2023/12/08 08:31:34;;;;;;;0.80;0.80;;;1.20;99.90;;;;;;6191697;23;20016;-74
2023/12/08 08:33:59;;;;;;;0.93;0.93;;;1.20;99.90;;;;;;6192053;23;20043;-72
2023/12/08 08:36:25;;;;;;;0.63;0.50;;;1.20;99.90;;;;;;6192129;23;20008;-73
2023/12/08 08:42:32;;;;;;;1.50;1.38;;;1.20;99.90;;;;;;6218854;23;20031;-72
2023/12/08 08:48:39;;;;;;;0.17;0.17;;;1.30;99.90;;;;;;6218489;23;20071;-73
2023/12/08 08:51:04;;;;;;;2.20;1.38;;;1.30;99.90;;;;;;6167327;23;20379;-73
2023/12/08 08:53:30;;;;;;;1.25;1.15;;;1.30;99.90;;;;;;6191780;23;20020;-72
2023/12/08 08:55:56;;;;;;;1.33;0.85;;;1.30;99.90;;;;;;6191894;23;20032;-72
2023/12/08 08:58:21;;;;;;;12.07;1.42;;;1.30;99.90;;;;;;6218121;23;20083;-72
2023/12/08 09:04:27;;;;;;;0.82;0.45;;;1.40;99.90;;;;;;6217704;23;20039;-72
2023/12/08 09:06:55;;;;;;;0.10;0.10;;;1.40;99.90;;;;;;6165842;23;20013;-73
2023/12/08 09:09:22;;;;;;;4.57;1.38;;;1.40;99.90;;;;;;6217562;23;20083;-72
2023/12/08 09:11:47;;;;;;;0.52;0.52;;;1.40;99.90;;;;;;6190582;23;20440;-71
2023/12/08 09:17:55;;;;;;;1.50;0.73;;;1.40;99.90;;;;;;6217273;23;20015;-71
2023/12/08 09:20:21;;;;;;;0.47;0.47;;;1.40;99.90;;;;;;6165681;23;20012;-72
2023/12/08 09:22:46;;;;;;;0.77;0.77;;;1.40;99.90;;;;;;6166160;23;20051;-72
2023/12/08 09:25:12;;;;;;;0.98;0.75;;;1.40;99.90;;;;;;6190884;23;20008;-71
2023/12/08 09:31:18;;;;;;;0.50;0.50;;;1.50;99.90;;;;;;6217435;23;20011;-71
2023/12/08 09:33:44;;;;;;;0.20;0.20;;;1.50;99.90;;;;;;6190377;23;20040;-71
2023/12/08 09:36:09;;;;;;;2.58;2.03;;;1.50;99.90;;;;;;6190523;23;20064;-72
2023/12/08 09:38:35;;;;;;;0.28;0.25;;;1.50;99.90;;;;;;6165641;23;20047;-72
2023/12/08 09:41:04;;;;;;;0.65;0.65;;;1.50;99.90;;;;;;6191456;23;20436;-71
2023/12/08 09:43:38;;;;;;;2.80;1.15;;;1.50;99.90;;;;;;6190563;23;20017;-71
2023/12/08 09:46:04;;;;;;;1.85;0.80;;;1.60;99.90;;;;;;6165760;23;20019;-72
2023/12/08 09:48:33;;;;;;;0.70;0.70;;;1.60;99.90;;;;;;6190561;23;20356;-72
2023/12/08 09:51:01;;;;;;;4.90;0.85;;;1.60;99.90;;;;;;6217051;23;20324;-72
2023/12/08 09:53:27;;;;;;;0.77;0.65;;;1.60;99.90;;;;;;6190259;23;20008;-72
2023/12/08 09:55:53;;;;;;;0.30;0.30;;;1.60;99.90;;;;;;6190616;23;20183;-72
2023/12/08 09:58:22;;;;;;;1.10;0.85;;;1.60;99.90;;;;;;6191084;23;20015;-72
2023/12/08 10:00:49;;;;;;;1.40;0.88;;;1.60;99.90;;;;;;6190644;23;20013;-72
2023/12/08 10:03:17;;;;;;;0.63;0.63;;;1.60;99.90;;;;;;6217414;23;20019;-72
2023/12/08 10:05:43;;;;;;;4.60;0.82;;;1.60;99.90;;;;;;6165765;23;20076;-72
2023/12/08 10:08:09;;;;;;;0.10;0.10;;;1.70;99.90;;;;;;6190685;23;20013;-72
2023/12/08 10:10:37;;;;;;;1.48;0.40;;;1.70;99.90;;;;;;6190621;23;20016;-72
2023/12/08 10:13:03;;;;;;;0.68;0.47;;;1.70;99.90;;;;;;6190610;23;20036;-72
2023/12/08 10:15:28;;;;;;;4.03;0.80;;;1.70;99.90;;;;;;6166010;23;20013;-72
2023/12/08 10:17:54;;;;;;;0.40;0.17;;;1.70;99.90;;;;;;6165941;23;20019;-72
2023/12/08 10:20:20;;;;;;;0.90;0.90;;;1.70;99.90;;;;;;6191056;23;20466;-72
2023/12/08 10:26:29;;;;;;;0.75;0.52;;;1.80;99.90;;;;;;6217037;23;20027;-72
2023/12/08 10:28:56;;;;;;;0.38;0.38;;;1.80;99.90;;;;;;6190095;23;20017;-72
2023/12/08 10:31:21;;;;;;;1.20;1.10;;;1.80;99.90;;;;;;6190110;23;20340;-72
2023/12/08 10:33:48;;;;;;;0.52;0.52;;;1.90;99.90;;;;;;6216472;23;20012;-72
2023/12/08 10:36:14;;;;;;;0.98;0.95;;;1.90;99.90;;;;;;6190101;23;20088;-72
2023/12/08 10:38:40;;;;;;;0.22;0.22;;;1.90;99.90;;;;;;6216819;23;20044;-72
2023/12/08 10:41:10;;;;;;;0.90;0.77;;;1.90;99.90;;;;;;6190160;23;20016;-73
2023/12/08 10:47:17;;;;;;;2.00;0.40;;;2.00;99.90;;;;;;6216810;23;20459;-72
2023/12/08 10:49:43;;;;;;;1.40;0.73;;;2.00;99.90;;;;;;6188225;23;20478;-66
2023/12/08 10:52:10;;;;;;;0.47;0.47;;;2.10;99.90;;;;;;6184927;23;20016;-66
2023/12/08 10:54:36;;;;;;;2.58;1.08;;;2.10;99.90;;;;;;6209038;23;20009;-66
2023/12/08 10:57:02;;;;;;;0.40;0.40;;;2.10;99.90;;;;;;6183211;23;20012;-65
2023/12/08 10:59:28;;;;;;;1.35;0.55;;;2.20;99.90;;;;;;6183570;23;20016;-65
2023/12/08 11:01:57;;;;;;;0.55;0.40;;;2.20;99.90;;;;;;6182741;23;20020;-65
2023/12/08 11:04:26;;;;;;;2.00;0.93;;;2.30;99.90;;;;;;6181604;23;20486;-65
2023/12/08 11:07:06;;;;;;;0.30;0.30;;;2.30;99.90;;;;;;6183430;23;20016;-65
2023/12/08 11:09:36;;;;;;;0.77;0.77;;;2.30;99.90;;;;;;6183891;23;20357;-65
2023/12/08 11:12:06;;;;;;;0.95;0.82;;;2.40;99.90;;;;;;6211443;23;20013;-65
2023/12/08 11:14:41;;;;;;;0.52;0.52;;;2.40;99.90;;;;;;6181813;23;20016;-65
2023/12/08 11:17:19;;;;;;;1.63;0.57;;;2.40;99.90;;;;;;6185986;23;20016;-65
2023/12/08 11:19:46;;;;;;;0.65;0.65;;;2.50;99.90;;;;;;6209609;23;20009;-65
2023/12/08 11:22:12;;;;;;;0.55;0.43;;;2.50;99.90;;;;;;6185080;23;20027;-65
2023/12/08 11:24:39;;;;;;;1.83;0.30;;;2.50;99.90;;;;;;6208993;23;20017;-65
2023/12/08 11:27:05;;;;;;;0.10;0.10;;;2.60;99.90;;;;;;6183008;23;20016;-65
2023/12/08 11:29:52;;;;;;;0.30;0.30;;;2.60;99.90;;;;;;6211621;23;20021;-65
2023/12/08 11:32:40;;;;;;;0.85;0.77;;;2.60;99.90;;;;;;6212368;23;20008;-65
2023/12/08 11:35:12;;;;;;;0.20;0.20;;;2.60;99.90;;;;;;6183773;23;20009;-65
2023/12/08 11:37:39;;;;;;;0.50;0.50;;;2.70;99.90;;;;;;6185473;23;20023;-65
2023/12/08 11:40:07;;;;;;;1.23;0.73;;;2.70;99.90;;;;;;6183836;23;20035;-65
2023/12/08 11:42:33;;;;;;;0.15;0.15;;;2.80;99.90;;;;;;6184621;23;20024;-65
2023/12/08 11:44:59;;;;;;;0.10;0.10;;;2.70;99.90;;;;;;6181891;23;20013;-65
2023/12/08 11:47:26;;;;;;;5.47;0.85;;;2.80;99.90;;;;;;6184703;23;20083;-65
2023/12/08 11:49:53;;;;;;;1.85;0.57;;;2.80;99.90;;;;;;6179850;23;20012;-65
2023/12/08 11:52:20;;;;;;;0.30;0.30;;;2.90;99.90;;;;;;6184794;23;20043;-65
2023/12/08 11:55:09;;;;;;;0.73;0.73;;;2.90;99.90;;;;;;6182454;23;20019;-65
2023/12/08 11:57:58;;;;;;;1.58;1.15;;;2.90;99.90;;;;;;6212463;23;20017;-65
2023/12/08 12:00:24;;;;;;;2.28;1.65;;;3.00;99.90;;;;;;6193262;23;20402;-65
2023/12/08 12:02:50;;;;;;;1.40;1.30;;;3.00;99.90;;;;;;6184642;23;20032;-66
2023/12/08 12:05:16;;;;;;;0.63;0.63;;;3.00;99.90;;;;;;6208622;23;20016;-65
2023/12/08 12:07:46;;;;;;;0.10;0.10;;;3.00;99.90;;;;;;6184526;23;20111;-66
2023/12/08 12:10:12;;;;;;;0.40;0.40;;;3.10;99.90;;;;;;6183614;23;20009;-66
2023/12/08 12:12:48;;;;;;;0.10;0.10;;;3.10;99.90;;;;;;6184723;23;20005;-66
2023/12/08 12:15:17;;;;;;;0.17;0.17;;;3.10;99.90;;;;;;6183379;23;20013;-66
2023/12/08 12:17:43;;;;;;;4.38;0.43;;;3.20;99.90;;;;;;6186043;23;20348;-65
2023/12/08 12:20:11;;;;;;;0.45;0.43;;;3.20;99.90;;;;;;6160369;23;20020;-66
2023/12/08 12:22:39;;;;;;;0.40;0.40;;;3.20;99.90;;;;;;6185887;23;20020;-66
2023/12/08 12:25:05;;;;;;;0.28;0.28;;;3.20;99.90;;;;;;6211819;23;20051;-66
2023/12/08 12:27:31;;;;;;;0.60;0.60;;;3.30;99.90;;;;;;6212448;23;20021;-66
2023/12/08 12:29:56;;;;;;;0.43;0.43;;;3.30;99.90;;;;;;6211051;23;20016;-66
2023/12/08 12:32:22;;;;;;;3.40;0.75;;;3.30;99.90;;;;;;6186122;23;20391;-66
2023/12/08 12:34:48;;;;;;;0.38;0.38;;;3.30;99.90;;;;;;6184706;23;20087;-66
2023/12/08 12:37:13;;;;;;;0.30;0.30;;;3.30;99.90;;;;;;6186925;23;20016;-66
2023/12/08 12:39:39;;;;;;;1.13;1.08;;;3.40;99.90;;;;;;6184449;23;20340;-66
2023/12/08 12:42:05;;;;;;;1.00;0.43;;;3.40;99.90;;;;;;6187619;23;20059;-66
2023/12/08 12:44:44;;;;;;;1.90;0.65;;;3.40;99.90;;;;;;6210223;23;20017;-66
2023/12/08 12:47:11;;;;;;;0.10;0.10;;;3.50;99.90;;;;;;6187293;23;20044;-66
2023/12/08 12:50:00;;;;;;;1.65;0.50;;;3.40;99.90;;;;;;6184111;23;20042;-66
2023/12/08 12:52:27;;;;;;;0.63;0.63;;;3.40;99.90;;;;;;6186289;23;20038;-66
2023/12/08 12:54:54;;;;;;;0.68;0.28;;;3.50;99.90;;;;;;6157896;23;20087;-66
2023/12/08 12:57:41;;;;;;;0.20;0.20;;;3.50;99.90;;;;;;6184144;23;20422;-66
2023/12/08 13:00:09;;;;;;;0.10;0.10;;;3.50;99.90;;;;;;6211173;23;20049;-66
2023/12/08 13:02:35;;;;;;;0.45;0.43;;;3.60;99.90;;;;;;6184062;23;20024;-66
2023/12/08 13:05:07;;;;;;;0.05;0.05;;;3.60;99.90;;;;;;6182845;23;20468;-66
2023/12/08 13:07:36;;;;;;;0.10;0.10;;;3.60;99.90;;;;;;6186088;23;20025;-66
2023/12/08 13:10:04;;;;;;;0.43;0.43;;;3.60;99.90;;;;;;6184000;23;20083;-66
2023/12/08 13:12:30;;;;;;;0.10;0.10;;;3.60;99.90;;;;;;6184758;23;20012;-66
2023/12/08 13:14:56;;;;;;;0.57;0.57;;;3.60;99.90;;;;;;6182650;23;20083;-66
2023/12/08 13:17:22;;;;;;;0.10;0.10;;;3.60;99.90;;;;;;6212587;23;20055;-66
2023/12/08 13:19:50;;;;;;;0.68;0.68;;;3.60;99.90;;;;;;6182531;23;20026;-66
2023/12/08 13:22:16;;;;;;;0.10;0.10;;;3.60;99.90;;;;;;6212715;23;20327;-66
2023/12/08 13:24:41;;;;;;;0.20;0.20;;;3.60;99.90;;;;;;6181375;23;20103;-66
2023/12/08 13:27:07;;;;;;;0.40;0.40;;;3.70;99.90;;;;;;6185750;23;20012;-66
2023/12/08 13:29:33;;;;;;;0.45;0.45;;;3.60;99.90;;;;;;6183727;23;20514;-66
2023/12/08 13:31:58;;;;;;;0.10;0.10;;;3.70;99.90;;;;;;6212846;23;20012;-66